Time;durP1;ratioP1;P1;durP2;ratioP2;P2;SDS_P1;SDS_P2;PMS_P1;PMS_P2;Temp;Humidity;BMP_temperature;BMP_pressure;BME280_temperature;BME280_humidity;BME280_pressure;Samples;Min_cycle;Max_cycle;Signal;HPM_P1;HPM_P2
2022/07/24 00:01:28;;;;;;;;;23.00;23.00;;;;;;;;5255923;28;8793;-72
2022/07/24 00:03:59;;;;;;;;;20.75;19.75;;;;;;;;5256651;28;8780;-73
2022/07/24 00:06:30;;;;;;;;;20.75;20.75;;;;;;;;5257080;28;8780;-73
2022/07/24 00:09:01;;;;;;;;;22.75;21.75;;;;;;;;5255593;28;8799;-73
2022/07/24 00:11:32;;;;;;;;;22.00;21.50;;;;;;;;5255953;28;8832;-73
2022/07/24 00:14:21;;;;;;;;;21.75;21.75;;;;;;;;5256751;28;8799;-73
2022/07/24 00:16:53;;;;;;;;;21.75;21.75;;;;;;;;5255789;28;8849;-72
2022/07/24 00:19:24;;;;;;;;;22.75;22.75;;;;;;;;5245902;28;8855;-72
2022/07/24 00:21:57;;;;;;;;;20.50;20.25;;;;;;;;5240582;28;8768;-73
2022/07/24 00:24:28;;;;;;;;;19.50;19.25;;;;;;;;5236350;28;9575;-72
2022/07/24 00:27:00;;;;;;;;;21.50;21.00;;;;;;;;5240733;28;8808;-73
2022/07/24 00:29:31;;;;;;;;;20.50;20.50;;;;;;;;5238551;28;8759;-73
2022/07/24 00:32:02;;;;;;;;;22.00;22.00;;;;;;;;5240094;28;8816;-73
2022/07/24 00:34:33;;;;;;;;;22.00;22.00;;;;;;;;5256620;28;8783;-73
2022/07/24 00:37:04;;;;;;;;;17.75;17.75;;;;;;;;5255507;28;8786;-73
2022/07/24 00:39:36;;;;;;;;;21.75;20.25;;;;;;;;5246839;28;9486;-73
2022/07/24 00:42:07;;;;;;;;;20.75;20.75;;;;;;;;5246857;28;8804;-73
2022/07/24 00:44:38;;;;;;;;;22.75;22.75;;;;;;;;5256386;28;9480;-74
2022/07/24 00:47:09;;;;;;;;;18.75;18.75;;;;;;;;5238713;28;8775;-72
2022/07/24 00:49:41;;;;;;;;;20.50;20.00;;;;;;;;5254926;28;8799;-72
2022/07/24 00:52:11;;;;;;;;;18.67;18.67;;;;;;;;5253854;28;8791;-72
2022/07/24 00:55:02;;;;;;;;;23.00;23.00;;;;;;;;5232274;28;11486;-72
2022/07/24 00:57:34;;;;;;;;;24.50;23.00;;;;;;;;5214702;28;8787;-72
2022/07/24 01:00:06;;;;;;;;;16.75;16.75;;;;;;;;5231172;28;8802;-72
2022/07/24 01:02:41;;;;;;;;;21.50;21.50;;;;;;;;5231345;28;8815;-72
2022/07/24 01:05:12;;;;;;;;;22.50;22.00;;;;;;;;5228960;28;8836;-71
2022/07/24 01:07:43;;;;;;;;;15.00;15.00;;;;;;;;5228442;28;8941;-72
2022/07/24 01:10:14;;;;;;;;;23.25;22.75;;;;;;;;5241606;28;8830;-71
2022/07/24 01:12:46;;;;;;;;;17.25;17.25;;;;;;;;5245576;28;8791;-71
2022/07/24 01:15:17;;;;;;;;;22.75;22.75;;;;;;;;5248572;28;8793;-72
2022/07/24 01:17:48;;;;;;;;;21.00;21.00;;;;;;;;5267315;28;8908;-72
2022/07/24 01:20:19;;;;;;;;;25.00;25.00;;;;;;;;5266336;28;8969;-72
2022/07/24 01:22:50;;;;;;;;;21.00;21.00;;;;;;;;5249307;28;8785;-71
2022/07/24 01:25:21;;;;;;;;;25.75;25.00;;;;;;;;5267139;28;8792;-72
2022/07/24 01:27:52;;;;;;;;;24.50;24.50;;;;;;;;5245046;28;8847;-71
2022/07/24 01:30:24;;;;;;;;;22.00;22.00;;;;;;;;5247881;28;8831;-72
2022/07/24 01:32:55;;;;;;;;;19.25;19.25;;;;;;;;5245152;28;8787;-72
2022/07/24 01:35:44;;;;;;;;;20.50;20.50;;;;;;;;5258903;28;8791;-71
2022/07/24 01:38:16;;;;;;;;;25.50;25.50;;;;;;;;5228652;28;9533;-71
2022/07/24 01:40:47;;;;;;;;;22.00;21.50;;;;;;;;5245158;28;9494;-72
2022/07/24 01:43:18;;;;;;;;;22.50;22.00;;;;;;;;5228696;28;8799;-72
2022/07/24 01:45:49;;;;;;;;;23.75;23.75;;;;;;;;5228541;28;9505;-71
2022/07/24 01:48:40;;;;;;;;;22.75;22.75;;;;;;;;5231174;28;8787;-73
2022/07/24 01:51:11;;;;;;;;;24.25;24.25;;;;;;;;5245107;28;8813;-72
2022/07/24 01:53:42;;;;;;;;;22.25;22.25;;;;;;;;5234333;28;8946;-73
2022/07/24 01:56:13;;;;;;;;;25.00;25.00;;;;;;;;5249079;28;8789;-72
2022/07/24 01:58:44;;;;;;;;;27.00;26.25;;;;;;;;5265404;28;8853;-72
2022/07/24 02:01:15;;;;;;;;;35.20;32.20;;;;;;;;5227910;28;8791;-73
2022/07/24 02:03:46;;;;;;;;;29.25;28.75;;;;;;;;5228501;28;9513;-72
2022/07/24 02:06:18;;;;;;;;;26.75;26.75;;;;;;;;5245044;28;8819;-72
2022/07/24 02:08:49;;;;;;;;;31.75;29.50;;;;;;;;5247195;28;8779;-72
2022/07/24 02:11:20;;;;;;;;;31.75;30.50;;;;;;;;5244723;28;8803;-73
2022/07/24 02:13:52;;;;;;;;;34.00;32.00;;;;;;;;5244823;28;8837;-72
2022/07/24 02:16:23;;;;;;;;;31.75;30.50;;;;;;;;5245236;28;8779;-72
2022/07/24 02:19:13;;;;;;;;;50.20;41.00;;;;;;;;5245145;28;8810;-73
2022/07/24 02:21:44;;;;;;;;;36.20;32.20;;;;;;;;5244884;28;8790;-73
2022/07/24 02:24:33;;;;;;;;;36.60;32.60;;;;;;;;5242237;28;8799;-72
2022/07/24 02:27:04;;;;;;;;;36.75;33.50;;;;;;;;5244452;28;8854;-72
2022/07/24 02:29:35;;;;;;;;;38.00;33.60;;;;;;;;5245531;28;11509;-72
2022/07/24 02:32:07;;;;;;;;;35.40;32.60;;;;;;;;5227882;28;8784;-72
2022/07/24 02:34:38;;;;;;;;;30.75;30.00;;;;;;;;5244584;28;8861;-73
2022/07/24 02:37:09;;;;;;;;;30.50;29.25;;;;;;;;5227745;28;8793;-72
2022/07/24 02:39:40;;;;;;;;;26.50;26.50;;;;;;;;5244983;28;8795;-74
2022/07/24 02:42:11;;;;;;;;;24.50;24.50;;;;;;;;5251282;28;8797;-73
2022/07/24 02:44:42;;;;;;;;;27.00;27.00;;;;;;;;5265442;28;8808;-72
2022/07/24 02:47:14;;;;;;;;;21.00;20.67;;;;;;;;5268668;28;8811;-73
2022/07/24 02:49:45;;;;;;;;;22.25;22.25;;;;;;;;5269046;28;8776;-73
2022/07/24 02:52:16;;;;;;;;;23.50;23.50;;;;;;;;5270531;28;8776;-75
2022/07/24 02:54:48;;;;;;;;;24.50;24.50;;;;;;;;5269832;28;8773;-75
2022/07/24 02:57:19;;;;;;;;;25.25;25.25;;;;;;;;5261070;28;8880;-74
2022/07/24 03:00:10;;;;;;;;;24.50;24.50;;;;;;;;5250072;28;8791;-74
2022/07/24 03:02:41;;;;;;;;;25.00;25.00;;;;;;;;5232140;28;8779;-75
2022/07/24 03:05:12;;;;;;;;;26.00;26.00;;;;;;;;5220197;28;8797;-74
2022/07/24 03:07:43;;;;;;;;;26.25;26.25;;;;;;;;5269836;28;8805;-74
2022/07/24 03:10:15;;;;;;;;;23.75;23.75;;;;;;;;5267843;28;8805;-71
2022/07/24 03:12:46;;;;;;;;;25.50;24.50;;;;;;;;5252014;28;8776;-71
2022/07/24 03:15:17;;;;;;;;;22.75;22.75;;;;;;;;5252119;28;8782;-72
2022/07/24 03:18:07;;;;;;;;;27.50;27.50;;;;;;;;5254588;28;8781;-71
2022/07/24 03:20:38;;;;;;;;;21.25;21.25;;;;;;;;5267871;28;8785;-71
2022/07/24 03:23:09;;;;;;;;;24.75;24.00;;;;;;;;5244192;28;8803;-71
2022/07/24 03:25:58;;;;;;;;;24.00;24.00;;;;;;;;5248647;28;8771;-72
2022/07/24 03:28:29;;;;;;;;;22.25;22.25;;;;;;;;5214857;28;8778;-72
2022/07/24 03:31:01;;;;;;;;;22.50;22.00;;;;;;;;5268398;28;9635;-72
2022/07/24 03:33:33;;;;;;;;;24.50;24.50;;;;;;;;5239568;28;9499;-72
2022/07/24 03:36:04;;;;;;;;;24.00;24.00;;;;;;;;5240052;28;8843;-72
2022/07/24 03:38:35;;;;;;;;;24.50;24.00;;;;;;;;5258502;28;8764;-72
2022/07/24 03:41:06;;;;;;;;;25.00;25.00;;;;;;;;5252550;28;8868;-74
2022/07/24 03:43:37;;;;;;;;;13.00;13.00;;;;;;;;5249682;28;8791;-72
2022/07/24 03:46:09;;;;;;;;;20.50;20.50;;;;;;;;5232050;28;8794;-75
2022/07/24 03:48:40;;;;;;;;;18.00;18.00;;;;;;;;5247207;28;8783;-75
2022/07/24 03:51:30;;;;;;;;;24.75;24.75;;;;;;;;5252988;28;8804;-74
2022/07/24 03:54:02;;;;;;;;;26.00;26.00;;;;;;;;5251472;28;8795;-74
2022/07/24 03:56:33;;;;;;;;;26.00;26.00;;;;;;;;5257384;28;8816;-74
2022/07/24 03:59:04;;;;;;;;;24.00;24.00;;;;;;;;5256937;28;9707;-74
2022/07/24 04:01:35;;;;;;;;;26.50;25.75;;;;;;;;5234385;28;8799;-71
2022/07/24 04:04:06;;;;;;;;;26.00;26.00;;;;;;;;5225861;28;8822;-71
2022/07/24 04:06:38;;;;;;;;;28.50;28.00;;;;;;;;5236763;28;8802;-70
2022/07/24 04:09:09;;;;;;;;;27.00;27.00;;;;;;;;5246844;28;8843;-71
2022/07/24 04:11:44;;;;;;;;;25.00;25.00;;;;;;;;5230020;28;8830;-70
2022/07/24 04:14:15;;;;;;;;;26.00;26.00;;;;;;;;5230671;28;8803;-70
2022/07/24 04:16:47;;;;;;;;;25.50;25.50;;;;;;;;5230038;28;8791;-69
2022/07/24 04:19:18;;;;;;;;;24.75;24.50;;;;;;;;5230045;28;9697;-72
2022/07/24 04:21:49;;;;;;;;;23.75;23.75;;;;;;;;5258884;28;8910;-71
2022/07/24 04:24:21;;;;;;;;;26.75;25.25;;;;;;;;5230116;28;8803;-70
2022/07/24 04:26:52;;;;;;;;;28.50;28.25;;;;;;;;5240385;28;9543;-70
2022/07/24 04:29:23;;;;;;;;;25.50;25.50;;;;;;;;5229464;28;8831;-71
2022/07/24 04:31:55;;;;;;;;;24.00;24.00;;;;;;;;5231879;28;9515;-70
2022/07/24 04:34:26;;;;;;;;;27.75;27.00;;;;;;;;5250665;28;8910;-70
2022/07/24 04:37:16;;;;;;;;;26.50;26.50;;;;;;;;5254825;28;8787;-71
2022/07/24 04:39:47;;;;;;;;;28.00;27.75;;;;;;;;5214370;28;8799;-70
2022/07/24 04:42:18;;;;;;;;;27.25;26.75;;;;;;;;5245233;28;8802;-71
2022/07/24 04:44:50;;;;;;;;;21.25;21.25;;;;;;;;5246187;28;8775;-70
2022/07/24 04:47:21;;;;;;;;;25.25;25.25;;;;;;;;5213939;28;9528;-71
2022/07/24 04:49:53;;;;;;;;;21.00;21.00;;;;;;;;5229515;28;9577;-70
2022/07/24 04:52:24;;;;;;;;;26.75;26.75;;;;;;;;5229345;28;8787;-70
2022/07/24 04:54:55;;;;;;;;;27.00;27.00;;;;;;;;5229239;28;8886;-70
2022/07/24 04:57:46;;;;;;;;;29.25;28.75;;;;;;;;5231816;28;8794;-70
2022/07/24 05:00:17;;;;;;;;;24.75;24.75;;;;;;;;5244431;28;8805;-70
2022/07/24 05:02:48;;;;;;;;;23.75;23.75;;;;;;;;5229222;28;8908;-71
2022/07/24 05:05:37;;;;;;;;;30.00;27.00;;;;;;;;5247302;28;8833;-70
2022/07/24 05:08:27;;;;;;;;;27.25;27.25;;;;;;;;5245672;28;8787;-72
2022/07/24 05:10:58;;;;;;;;;23.25;23.25;;;;;;;;5245543;28;9535;-71
2022/07/24 05:13:29;;;;;;;;;28.75;28.75;;;;;;;;5242291;28;8779;-71
2022/07/24 05:16:00;;;;;;;;;25.50;25.50;;;;;;;;5228842;28;8852;-71
2022/07/24 05:18:50;;;;;;;;;20.50;20.00;;;;;;;;5260556;28;9534;-71
2022/07/24 05:21:21;;;;;;;;;25.00;25.00;;;;;;;;5249720;28;8780;-71
2022/07/24 05:23:52;;;;;;;;;26.50;26.50;;;;;;;;5232935;28;8804;-71
2022/07/24 05:26:23;;;;;;;;;26.75;26.75;;;;;;;;5266184;28;8928;-71
2022/07/24 05:28:55;;;;;;;;;22.00;22.00;;;;;;;;5266175;28;8804;-71
2022/07/24 05:31:26;;;;;;;;;21.75;21.75;;;;;;;;5266326;28;8815;-70
2022/07/24 05:33:58;;;;;;;;;24.00;23.00;;;;;;;;5244280;28;8817;-71
2022/07/24 05:36:29;;;;;;;;;19.50;19.50;;;;;;;;5244819;28;8795;-70
2022/07/24 05:39:00;;;;;;;;;19.50;19.50;;;;;;;;5262314;28;8783;-70
2022/07/24 05:41:32;;;;;;;;;17.50;17.50;;;;;;;;5245133;28;8799;-70
2022/07/24 05:44:03;;;;;;;;;21.50;21.25;;;;;;;;5246728;28;8868;-70
2022/07/24 05:46:52;;;;;;;;;17.25;17.25;;;;;;;;5245451;28;8921;-70
2022/07/24 05:49:23;;;;;;;;;21.50;21.25;;;;;;;;5230443;28;8953;-70
2022/07/24 05:51:55;;;;;;;;;17.00;17.00;;;;;;;;5249054;28;8793;-70
2022/07/24 05:54:26;;;;;;;;;20.00;20.00;;;;;;;;5260548;28;8787;-70
2022/07/24 05:56:57;;;;;;;;;21.00;21.00;;;;;;;;5245958;28;8787;-71
2022/07/24 05:59:28;;;;;;;;;20.00;20.00;;;;;;;;5228651;28;8783;-70
2022/07/24 06:02:01;;;;;;;;;16.00;16.00;;;;;;;;5245173;28;8783;-71
2022/07/24 06:04:34;;;;;;;;;19.75;19.75;;;;;;;;5244983;28;8778;-73
2022/07/24 06:07:23;;;;;;;;;31.25;29.75;;;;;;;;5230945;28;8794;-71
2022/07/24 06:09:55;;;;;;;;;24.50;24.50;;;;;;;;5244352;28;8811;-70
2022/07/24 06:12:26;;;;;;;;;24.25;24.25;;;;;;;;5244816;28;8782;-70
2022/07/24 06:15:15;;;;;;;;;19.00;19.00;;;;;;;;5231047;28;8787;-70
2022/07/24 06:18:05;;;;;;;;;21.50;21.50;;;;;;;;5246419;28;9469;-71
2022/07/24 06:20:37;;;;;;;;;22.75;22.50;;;;;;;;5212339;28;8779;-71
2022/07/24 06:23:08;;;;;;;;;32.50;30.25;;;;;;;;5249367;28;8888;-72
2022/07/24 06:25:40;;;;;;;;;45.00;38.60;;;;;;;;5232031;28;8775;-73
2022/07/24 06:28:11;;;;;;;;;22.50;22.50;;;;;;;;5232003;28;8799;-71
2022/07/24 06:31:01;;;;;;;;;20.25;20.25;;;;;;;;5234860;28;8795;-71
2022/07/24 06:33:32;;;;;;;;;29.25;28.25;;;;;;;;5248151;28;8775;-71
2022/07/24 06:36:03;;;;;;;;;22.75;22.75;;;;;;;;5265307;28;8806;-71
2022/07/24 06:38:36;;;;;;;;;22.25;22.25;;;;;;;;5248589;28;8901;-71
2022/07/24 06:41:07;;;;;;;;;23.00;23.00;;;;;;;;5232142;28;8786;-71
2022/07/24 06:43:38;;;;;;;;;43.00;37.60;;;;;;;;5248293;28;8787;-71
2022/07/24 06:46:09;;;;;;;;;44.60;38.00;;;;;;;;5231846;28;9482;-71
2022/07/24 06:48:40;;;;;;;;;27.50;27.25;;;;;;;;5246461;28;8787;-70
2022/07/24 06:51:11;;;;;;;;;41.40;36.20;;;;;;;;5265000;28;8811;-71
2022/07/24 06:53:44;;;;;;;;;30.33;29.33;;;;;;;;5249334;28;8832;-71
2022/07/24 06:56:15;;;;;;;;;28.50;28.00;;;;;;;;5264983;28;10291;-71
2022/07/24 06:58:46;;;;;;;;;33.75;31.50;;;;;;;;5248317;28;8875;-70
2022/07/24 07:01:35;;;;;;;;;23.25;23.25;;;;;;;;5248151;28;8798;-71
2022/07/24 07:04:24;;;;;;;;;22.00;22.00;;;;;;;;5233975;28;8834;-71
2022/07/24 07:06:55;;;;;;;;;21.50;21.50;;;;;;;;5231972;28;8803;-71
2022/07/24 07:09:27;;;;;;;;;22.00;22.00;;;;;;;;5231475;28;9632;-71
2022/07/24 07:12:16;;;;;;;;;24.00;24.00;;;;;;;;5234083;28;8823;-71
2022/07/24 07:14:48;;;;;;;;;36.25;32.00;;;;;;;;5247842;28;8767;-71
2022/07/24 07:17:38;;;;;;;;;24.25;24.25;;;;;;;;5264792;28;8783;-71
2022/07/24 07:20:11;;;;;;;;;23.33;23.33;;;;;;;;5247608;28;8794;-71
2022/07/24 07:22:43;;;;;;;;;21.25;21.25;;;;;;;;5245384;28;8873;-71
2022/07/24 07:25:14;;;;;;;;;23.25;23.25;;;;;;;;5251705;28;8827;-71
2022/07/24 07:28:04;;;;;;;;;23.00;23.00;;;;;;;;5247575;28;8827;-71
2022/07/24 07:30:35;;;;;;;;;20.75;20.75;;;;;;;;5230635;28;8830;-71
2022/07/24 07:33:06;;;;;;;;;19.50;19.50;;;;;;;;5229410;28;8783;-71
2022/07/24 07:35:38;;;;;;;;;22.75;22.75;;;;;;;;5213984;28;8802;-71
2022/07/24 07:38:09;;;;;;;;;21.50;21.50;;;;;;;;5230071;28;9545;-71
2022/07/24 07:40:40;;;;;;;;;21.50;21.50;;;;;;;;5230523;28;8892;-71
2022/07/24 07:43:11;;;;;;;;;21.75;21.75;;;;;;;;5230429;28;8865;-71
2022/07/24 07:45:43;;;;;;;;;23.75;23.25;;;;;;;;5230491;28;8791;-71
2022/07/24 07:48:14;;;;;;;;;21.75;21.75;;;;;;;;5230554;28;8818;-71
2022/07/24 07:50:45;;;;;;;;;21.25;21.00;;;;;;;;5230722;28;8823;-71
2022/07/24 07:53:16;;;;;;;;;20.50;20.50;;;;;;;;5230628;28;8783;-71
2022/07/24 07:55:52;;;;;;;;;20.25;20.25;;;;;;;;5230372;28;9493;-71
2022/07/24 07:58:23;;;;;;;;;20.00;20.00;;;;;;;;5246990;28;8795;-71
2022/07/24 08:01:12;;;;;;;;;20.25;20.25;;;;;;;;5263843;28;8864;-71
2022/07/24 08:03:43;;;;;;;;;20.50;20.50;;;;;;;;5232524;28;8785;-71
2022/07/24 08:06:14;;;;;;;;;17.33;17.33;;;;;;;;5248103;28;8786;-72
2022/07/24 08:08:46;;;;;;;;;19.25;19.25;;;;;;;;5230315;28;8787;-70
2022/07/24 08:11:17;;;;;;;;;23.25;23.25;;;;;;;;5230003;28;8823;-71
2022/07/24 08:13:48;;;;;;;;;18.00;18.00;;;;;;;;5230445;28;8812;-70
2022/07/24 08:16:19;;;;;;;;;14.75;14.75;;;;;;;;5246834;28;8825;-71
2022/07/24 08:19:08;;;;;;;;;23.25;23.25;;;;;;;;5233083;28;8799;-71
2022/07/24 08:21:39;;;;;;;;;21.00;21.00;;;;;;;;5229819;28;8787;-71
2022/07/24 08:24:10;;;;;;;;;18.00;18.00;;;;;;;;5246448;28;8817;-71
2022/07/24 08:26:41;;;;;;;;;18.50;18.50;;;;;;;;5229563;28;8819;-71
2022/07/24 08:29:12;;;;;;;;;21.75;21.75;;;;;;;;5229952;28;8803;-70
2022/07/24 08:31:43;;;;;;;;;22.67;22.67;;;;;;;;5229905;28;8825;-71
2022/07/24 08:34:32;;;;;;;;;19.25;19.25;;;;;;;;5232410;28;11510;-70
2022/07/24 08:37:03;;;;;;;;;21.00;21.00;;;;;;;;5246113;28;9482;-71
2022/07/24 08:39:34;;;;;;;;;21.50;21.50;;;;;;;;5230363;28;8821;-71
2022/07/24 08:42:07;;;;;;;;;16.75;16.75;;;;;;;;5252146;28;8918;-72
2022/07/24 08:44:38;;;;;;;;;21.75;21.25;;;;;;;;5215771;28;8822;-71
2022/07/24 08:47:09;;;;;;;;;23.25;23.25;;;;;;;;5242651;28;8805;-71
2022/07/24 08:49:44;;;;;;;;;36.25;32.75;;;;;;;;5253938;28;8925;-72
2022/07/24 08:52:35;;;;;;;;;26.00;26.00;;;;;;;;5265971;28;8800;-72
2022/07/24 08:55:24;;;;;;;;;26.25;26.25;;;;;;;;5253595;28;8800;-71
2022/07/24 08:58:00;;;;;;;;;19.50;19.00;;;;;;;;5242166;28;8803;-70
2022/07/24 09:00:31;;;;;;;;;18.00;18.00;;;;;;;;5267874;28;8788;-71
2022/07/24 09:03:02;;;;;;;;;19.00;19.00;;;;;;;;5256083;28;8791;-71
2022/07/24 09:05:36;;;;;;;;;19.33;19.33;;;;;;;;5246649;28;8856;-71
2022/07/24 09:08:11;;;;;;;;;20.50;20.50;;;;;;;;5212129;28;10661;-71
2022/07/24 09:10:53;;;;;;;;;19.25;19.25;;;;;;;;5225562;28;8819;-71
2022/07/24 09:13:25;;;;;;;;;17.00;17.00;;;;;;;;5220664;28;8826;-70
2022/07/24 09:15:56;;;;;;;;;19.25;19.25;;;;;;;;5242698;28;8807;-71
2022/07/24 09:18:31;;;;;;;;;17.00;17.00;;;;;;;;5224093;28;8822;-71
2022/07/24 09:21:20;;;;;;;;;18.50;18.50;;;;;;;;5241527;28;10383;-70
2022/07/24 09:23:51;;;;;;;;;17.50;17.50;;;;;;;;5243907;28;8803;-71
2022/07/24 09:26:22;;;;;;;;;21.75;21.75;;;;;;;;5214406;28;8830;-70
2022/07/24 09:28:54;;;;;;;;;19.50;19.50;;;;;;;;5243459;28;8814;-71
2022/07/24 09:31:26;;;;;;;;;16.75;16.75;;;;;;;;5242727;28;8839;-71
2022/07/24 09:34:08;;;;;;;;;17.50;17.50;;;;;;;;5232746;28;8911;-70
2022/07/24 09:36:39;;;;;;;;;17.25;17.25;;;;;;;;5225923;28;8815;-70
2022/07/24 09:39:17;;;;;;;;;19.00;19.00;;;;;;;;5219657;28;8799;-71
2022/07/24 09:41:52;;;;;;;;;16.00;15.75;;;;;;;;5248150;28;8811;-71
2022/07/24 09:44:25;;;;;;;;;19.00;19.00;;;;;;;;5220444;28;8883;-70
2022/07/24 09:46:57;;;;;;;;;18.00;18.00;;;;;;;;5244687;28;8897;-70
2022/07/24 09:49:47;;;;;;;;;16.50;16.50;;;;;;;;5245338;28;8790;-70
2022/07/24 09:52:37;;;;;;;;;17.00;17.00;;;;;;;;5260606;28;8800;-70
2022/07/24 09:55:26;;;;;;;;;17.00;17.00;;;;;;;;5250829;28;8784;-70
2022/07/24 09:57:58;;;;;;;;;14.25;14.25;;;;;;;;5248685;28;9483;-71
2022/07/24 10:00:30;;;;;;;;;14.75;14.75;;;;;;;;5244383;28;8810;-71
2022/07/24 10:03:05;;;;;;;;;17.25;17.25;;;;;;;;5244522;28;8791;-71
2022/07/24 10:05:37;;;;;;;;;19.75;19.25;;;;;;;;5245840;28;8810;-71
2022/07/24 10:08:13;;;;;;;;;17.00;17.00;;;;;;;;5244505;28;8775;-71
2022/07/24 10:10:44;;;;;;;;;18.00;18.00;;;;;;;;5227688;28;8818;-71
2022/07/24 10:13:16;;;;;;;;;17.75;17.75;;;;;;;;5227654;28;8794;-72
2022/07/24 10:16:11;;;;;;;;;15.25;15.25;;;;;;;;5230255;28;8791;-71
2022/07/24 10:18:45;;;;;;;;;22.50;22.50;;;;;;;;5227972;28;8809;-70
2022/07/24 10:21:20;;;;;;;;;16.00;16.00;;;;;;;;5228046;28;9486;-71
2022/07/24 10:24:06;;;;;;;;;17.50;17.50;;;;;;;;5244461;28;8803;-71
2022/07/24 10:26:45;;;;;;;;;17.50;17.00;;;;;;;;5244556;28;8811;-71
2022/07/24 10:29:17;;;;;;;;;16.25;16.25;;;;;;;;5262446;28;8788;-71
2022/07/24 10:31:50;;;;;;;;;17.00;17.00;;;;;;;;5231522;28;8816;-71
2022/07/24 10:34:26;;;;;;;;;14.75;14.75;;;;;;;;5231838;28;8788;-71
2022/07/24 10:37:03;;;;;;;;;18.50;18.50;;;;;;;;5248722;28;8807;-71
2022/07/24 10:39:38;;;;;;;;;17.25;17.00;;;;;;;;5244203;28;8953;-71
2022/07/24 10:42:09;;;;;;;;;16.75;16.75;;;;;;;;5244342;28;8798;-72
2022/07/24 10:44:40;;;;;;;;;21.50;21.50;;;;;;;;5244330;28;8782;-71
2022/07/24 10:47:32;;;;;;;;;20.75;20.75;;;;;;;;5246690;28;8811;-71
2022/07/24 10:50:04;;;;;;;;;3.75;3.75;;;;;;;;5227499;28;9677;-71
2022/07/24 10:52:40;;;;;;;;;18.25;18.25;;;;;;;;5235125;28;8799;-71
2022/07/24 10:55:24;;;;;;;;;19.25;19.25;;;;;;;;5244637;28;8790;-70
2022/07/24 10:58:02;;;;;;;;;16.50;16.50;;;;;;;;5222360;28;8816;-71
2022/07/24 11:00:35;;;;;;;;;20.25;20.25;;;;;;;;5246495;28;9549;-71
2022/07/24 11:03:26;;;;;;;;;16.75;16.75;;;;;;;;5243636;28;8836;-70
2022/07/24 11:06:10;;;;;;;;;18.25;18.25;;;;;;;;5227029;28;8802;-70
2022/07/24 11:08:48;;;;;;;;;20.50;20.00;;;;;;;;5231859;28;8807;-70
2022/07/24 11:11:20;;;;;;;;;19.75;19.75;;;;;;;;5230738;28;8807;-71
2022/07/24 11:14:01;;;;;;;;;22.50;22.50;;;;;;;;5247902;28;8775;-71
2022/07/24 11:16:32;;;;;;;;;22.75;22.75;;;;;;;;5241955;28;8791;-70
2022/07/24 11:19:03;;;;;;;;;18.00;18.00;;;;;;;;5234994;28;8918;-70
2022/07/24 11:21:36;;;;;;;;;17.67;17.67;;;;;;;;5268494;28;9687;-70
2022/07/24 11:26:51;;;;;;;;;22.00;22.00;;;;;;;;5272462;28;8792;-71
2022/07/24 11:29:23;;;;;;;;;18.00;18.00;;;;;;;;5259231;28;8788;-70
2022/07/24 11:31:55;;;;;;;;;20.25;20.25;;;;;;;;5239151;28;8880;-70
2022/07/24 11:34:28;;;;;;;;;20.50;20.50;;;;;;;;5257944;28;8775;-70
2022/07/24 11:37:00;;;;;;;;;17.50;17.50;;;;;;;;5247761;28;8919;-71
2022/07/24 11:39:32;;;;;;;;;18.75;18.75;;;;;;;;5245390;28;8795;-70
2022/07/24 11:42:10;;;;;;;;;17.75;17.75;;;;;;;;5247048;28;8832;-71
2022/07/24 11:44:46;;;;;;;;;19.00;19.00;;;;;;;;5246778;28;8791;-70
2022/07/24 11:47:17;;;;;;;;;22.00;22.00;;;;;;;;5230158;28;8926;-70
2022/07/24 11:49:50;;;;;;;;;21.00;21.00;;;;;;;;5230757;28;8921;-70
2022/07/24 11:52:22;;;;;;;;;27.25;26.50;;;;;;;;5239002;28;8957;-70
2022/07/24 11:54:55;;;;;;;;;24.25;24.25;;;;;;;;5230076;28;8829;-70
2022/07/24 11:57:27;;;;;;;;;20.25;20.25;;;;;;;;5230135;28;8803;-71
2022/07/24 11:59:58;;;;;;;;;20.75;20.75;;;;;;;;5247723;28;8802;-70
2022/07/24 12:02:29;;;;;;;;;26.25;26.25;;;;;;;;5231701;28;8880;-70
2022/07/24 12:05:27;;;;;;;;;22.50;22.50;;;;;;;;5234006;28;8834;-70
2022/07/24 12:08:00;;;;;;;;;22.00;22.00;;;;;;;;5229784;28;8790;-69
2022/07/24 12:10:31;;;;;;;;;22.00;22.00;;;;;;;;5229803;28;8846;-71
2022/07/24 12:13:02;;;;;;;;;19.75;19.75;;;;;;;;5230095;28;9580;-70
2022/07/24 12:15:37;;;;;;;;;19.67;19.67;;;;;;;;5213233;28;8771;-70
2022/07/24 12:18:09;;;;;;;;;19.50;19.50;;;;;;;;5229084;28;9409;-71
2022/07/24 12:20:41;;;;;;;;;20.00;20.00;;;;;;;;5230255;28;8795;-70
2022/07/24 12:23:30;;;;;;;;;20.25;20.25;;;;;;;;5267365;28;8797;-70
2022/07/24 12:26:20;;;;;;;;;18.00;18.00;;;;;;;;5266855;28;8914;-70
2022/07/24 12:29:07;;;;;;;;;18.67;18.67;;;;;;;;5250089;28;8935;-70
2022/07/24 12:31:42;;;;;;;;;17.50;17.50;;;;;;;;5267439;28;8800;-70
2022/07/24 12:34:15;;;;;;;;;28.75;28.00;;;;;;;;5239134;28;8877;-71
2022/07/24 12:36:46;;;;;;;;;21.00;21.00;;;;;;;;5214656;28;8832;-71
2022/07/24 12:39:17;;;;;;;;;20.25;20.25;;;;;;;;5257127;28;8855;-72
2022/07/24 12:41:48;;;;;;;;;21.75;21.75;;;;;;;;5229250;28;8787;-71
2022/07/24 12:44:44;;;;;;;;;28.50;28.00;;;;;;;;5244852;28;8791;-71
2022/07/24 12:47:15;;;;;;;;;24.50;24.00;;;;;;;;5227850;28;8798;-70
2022/07/24 12:50:11;;;;;;;;;23.50;23.50;;;;;;;;5230427;28;8949;-70
2022/07/24 12:52:42;;;;;;;;;16.75;16.75;;;;;;;;5256995;28;8817;-70
2022/07/24 12:55:19;;;;;;;;;25.00;25.00;;;;;;;;5245120;28;8815;-70
2022/07/24 12:58:09;;;;;;;;;18.25;18.25;;;;;;;;5231087;28;8809;-70
2022/07/24 13:00:55;;;;;;;;;21.00;21.00;;;;;;;;5222663;28;8846;-70
2022/07/24 13:03:27;;;;;;;;;19.25;19.25;;;;;;;;5229125;28;12250;-70
2022/07/24 13:05:57;;;;;;;;;20.00;20.00;;;;;;;;5228406;28;8791;-70
2022/07/24 13:08:28;;;;;;;;;21.75;21.75;;;;;;;;5228924;28;8760;-70
2022/07/24 13:10:59;;;;;;;;;21.25;21.25;;;;;;;;5229102;28;8849;-69
2022/07/24 13:13:30;;;;;;;;;17.00;17.00;;;;;;;;5228879;28;8803;-70
2022/07/24 13:16:02;;;;;;;;;17.67;17.67;;;;;;;;5249422;28;8788;-70
2022/07/24 13:18:33;;;;;;;;;14.75;14.75;;;;;;;;5249665;28;9156;-70
2022/07/24 13:21:04;;;;;;;;;21.00;21.00;;;;;;;;5249634;28;8940;-71
2022/07/24 13:23:35;;;;;;;;;18.25;18.25;;;;;;;;5232592;28;8839;-72
2022/07/24 13:26:06;;;;;;;;;20.33;20.33;;;;;;;;5265533;28;8844;-71
2022/07/24 13:28:37;;;;;;;;;22.75;22.75;;;;;;;;5229176;28;11480;-71
2022/07/24 13:31:08;;;;;;;;;18.25;18.25;;;;;;;;5210822;28;8814;-71
2022/07/24 13:33:39;;;;;;;;;16.75;16.75;;;;;;;;5245334;28;8913;-71
2022/07/24 13:36:11;;;;;;;;;13.50;13.50;;;;;;;;5228911;28;8791;-71
2022/07/24 13:38:42;;;;;;;;;20.50;20.50;;;;;;;;5238184;28;8820;-70
2022/07/24 13:41:13;;;;;;;;;17.25;17.25;;;;;;;;5240785;28;8795;-71
2022/07/24 13:44:04;;;;;;;;;22.75;22.75;;;;;;;;5245494;28;9548;-71
2022/07/24 13:46:38;;;;;;;;;18.50;18.00;;;;;;;;5244888;28;8953;-70
2022/07/24 13:49:09;;;;;;;;;19.00;18.50;;;;;;;;5243360;28;9502;-71
2022/07/24 13:51:40;;;;;;;;;24.50;24.50;;;;;;;;5244879;28;8937;-71
2022/07/24 13:54:11;;;;;;;;;45.00;38.00;;;;;;;;5228400;28;9723;-71
2022/07/24 13:56:43;;;;;;;;;44.20;37.80;;;;;;;;5244768;28;10062;-70
2022/07/24 13:59:15;;;;;;;;;51.40;42.60;;;;;;;;5244889;28;8790;-70
2022/07/24 14:01:46;;;;;;;;;40.40;35.00;;;;;;;;5254652;28;8835;-70
2022/07/24 14:04:17;;;;;;;;;27.25;27.25;;;;;;;;5246060;28;8801;-70
2022/07/24 14:06:48;;;;;;;;;68.80;60.00;;;;;;;;5230993;28;8812;-70
2022/07/24 14:09:19;;;;;;;;;43.00;36.80;;;;;;;;5249091;28;8784;-71
2022/07/24 14:11:50;;;;;;;;;26.00;25.75;;;;;;;;5265696;28;8808;-72
2022/07/24 14:14:21;;;;;;;;;24.75;24.75;;;;;;;;5265826;28;8781;-71
2022/07/24 14:16:56;;;;;;;;;19.50;19.50;;;;;;;;5265599;28;8804;-72
2022/07/24 14:19:28;;;;;;;;;44.20;38.40;;;;;;;;5265416;28;8797;-70
2022/07/24 14:21:58;;;;;;;;;22.25;22.25;;;;;;;;5249425;28;9522;-70
2022/07/24 14:24:29;;;;;;;;;24.25;24.25;;;;;;;;5220585;28;8819;-70
2022/07/24 14:27:00;;;;;;;;;21.00;21.00;;;;;;;;5259676;28;8872;-69
2022/07/24 14:29:31;;;;;;;;;22.00;22.00;;;;;;;;5227980;28;9531;-70
2022/07/24 14:32:02;;;;;;;;;16.75;16.75;;;;;;;;5231436;28;8807;-70
2022/07/24 14:34:33;;;;;;;;;17.75;17.75;;;;;;;;5211949;28;8779;-70
2022/07/24 14:37:22;;;;;;;;;16.50;16.50;;;;;;;;5244653;28;9027;-70
2022/07/24 14:39:53;;;;;;;;;15.00;15.00;;;;;;;;5227970;28;8897;-70
2022/07/24 14:42:24;;;;;;;;;14.67;14.67;;;;;;;;5258526;28;8807;-70
2022/07/24 14:44:55;;;;;;;;;15.33;15.33;;;;;;;;5236646;28;8894;-71
2022/07/24 14:47:45;;;;;;;;;18.75;18.75;;;;;;;;5255120;28;8765;-71
2022/07/24 14:50:16;;;;;;;;;15.75;15.75;;;;;;;;5270401;28;8808;-71
2022/07/24 14:53:05;;;;;;;;;15.50;15.50;;;;;;;;5255096;28;8990;-71
2022/07/24 14:55:36;;;;;;;;;15.75;15.75;;;;;;;;5232264;28;8923;-71
2022/07/24 14:58:08;;;;;;;;;20.00;20.00;;;;;;;;5243606;28;8768;-71
2022/07/24 15:00:39;;;;;;;;;18.00;18.00;;;;;;;;5252226;28;8803;-71
2022/07/24 15:03:10;;;;;;;;;22.00;22.00;;;;;;;;5263683;28;8771;-70
2022/07/24 15:05:42;;;;;;;;;16.50;16.50;;;;;;;;5224108;28;8956;-71
2022/07/24 15:08:13;;;;;;;;;12.50;12.50;;;;;;;;5248222;28;8783;-70
2022/07/24 15:10:44;;;;;;;;;15.00;15.00;;;;;;;;5229510;28;8815;-71
2022/07/24 15:13:15;;;;;;;;;18.33;18.33;;;;;;;;5257656;28;8828;-71